Time;durP1;ratioP1;P1;durP2;ratioP2;P2;SDS_P1;SDS_P2;PMS_P1;PMS_P2;Temp;Humidity;BMP_temperature;BMP_pressure;BME280_temperature;BME280_humidity;BME280_pressure;Samples;Min_cycle;Max_cycle;Signal;HPM_P1;HPM_P2
2022/05/26 00:02:11;;;;;;;25.43;17.53;;;22.40;82.60;;;;;;5045970;28;20209;-83
2022/05/26 00:04:40;;;;;;;22.13;18.23;;;22.40;82.80;;;;;;5065447;28;20215;-83
2022/05/26 00:07:08;;;;;;;17.97;16.13;;;22.40;83.00;;;;;;5043163;28;20210;-83
2022/05/26 00:09:37;;;;;;;20.43;16.70;;;22.40;83.00;;;;;;5055348;28;20300;-83
2022/05/26 00:12:06;;;;;;;25.43;18.10;;;22.30;82.90;;;;;;5057897;28;20218;-83
2022/05/26 00:14:34;;;;;;;24.03;19.00;;;22.30;83.00;;;;;;5078415;28;20249;-83
2022/05/26 00:17:02;;;;;;;28.37;18.33;;;22.30;83.10;;;;;;5044998;28;20538;-83
2022/05/26 00:19:30;;;;;;;22.33;19.90;;;22.30;83.20;;;;;;5043896;28;20632;-83
2022/05/26 00:21:57;;;;;;;25.97;17.73;;;22.20;83.20;;;;;;5032064;28;20206;-83
2022/05/26 00:24:25;;;;;;;23.00;17.03;;;22.20;83.30;;;;;;5045397;28;20210;-83
2022/05/26 00:26:54;;;;;;;26.63;17.53;;;22.20;83.30;;;;;;5061872;28;20206;-83
2022/05/26 00:29:21;;;;;;;22.27;18.33;;;22.20;83.30;;;;;;5044797;28;20712;-83
2022/05/26 00:31:48;;;;;;;26.20;18.97;;;22.20;83.40;;;;;;5044945;28;20210;-83
2022/05/26 00:34:17;;;;;;;22.47;18.70;;;22.20;83.50;;;;;;5060759;28;20254;-82
2022/05/26 00:36:45;;;;;;;21.87;19.07;;;22.10;83.50;;;;;;5044959;28;20229;-83
2022/05/26 00:39:19;;;;;;;22.33;18.43;;;22.10;83.50;;;;;;5058756;28;20233;-84
2022/05/26 00:41:52;;;;;;;24.77;19.63;;;22.10;83.20;;;;;;5043205;28;20278;-83
2022/05/26 00:44:21;;;;;;;27.17;20.17;;;22.10;83.00;;;;;;5043670;28;20202;-83
2022/05/26 00:47:09;;;;;;;22.00;19.60;;;22.10;82.80;;;;;;5059736;28;20301;-83
2022/05/26 00:49:50;;;;;;;22.10;19.47;;;22.10;83.10;;;;;;5043652;28;20217;-83
2022/05/26 00:52:28;;;;;;;26.07;19.47;;;22.00;83.10;;;;;;5043077;28;20206;-83
2022/05/26 00:55:01;;;;;;;22.00;19.07;;;22.00;83.20;;;;;;5059659;28;20328;-83
2022/05/26 00:57:43;;;;;;;23.37;17.87;;;22.00;83.30;;;;;;5059897;28;20546;-82
2022/05/26 01:00:14;;;;;;;21.60;18.83;;;22.00;83.30;;;;;;5060646;28;20211;-83
2022/05/26 01:02:48;;;;;;;22.10;17.57;;;21.90;83.10;;;;;;5060437;28;20207;-83
2022/05/26 01:05:34;;;;;;;36.23;19.73;;;21.90;83.10;;;;;;5059301;28;20524;-83
2022/05/26 01:08:01;;;;;;;27.47;19.27;;;21.90;83.10;;;;;;5043067;28;20545;-83
2022/05/26 01:10:34;;;;;;;34.17;19.57;;;21.80;83.20;;;;;;5062680;28;20276;-83
2022/05/26 01:13:04;;;;;;;27.80;19.77;;;21.80;83.20;;;;;;5029437;28;20217;-83
2022/05/26 01:15:38;;;;;;;25.13;20.30;;;21.80;83.20;;;;;;5062012;28;20230;-83
2022/05/26 01:18:34;;;;;;;25.07;19.90;;;21.70;83.30;;;;;;5057817;28;20250;-83
2022/05/26 01:21:31;;;;;;;26.37;18.93;;;21.70;83.80;;;;;;5062066;28;20198;-84
2022/05/26 01:24:29;;;;;;;34.40;20.37;;;21.60;84.10;;;;;;5040372;28;20283;-83
2022/05/26 01:27:29;;;;;;;26.50;17.83;;;21.50;84.30;;;;;;5066437;28;20210;-83
2022/05/26 01:30:24;;;;;;;26.07;17.77;;;21.50;84.40;;;;;;5030192;28;20226;-84
2022/05/26 01:33:17;;;;;;;32.73;18.50;;;21.50;84.30;;;;;;5068253;28;20221;-83
2022/05/26 01:36:02;;;;;;;32.23;20.37;;;21.40;84.20;;;;;;5062214;28;20211;-83
2022/05/26 01:38:54;;;;;;;24.50;19.43;;;21.40;84.40;;;;;;5046068;28;20664;-83
2022/05/26 01:41:47;;;;;;;24.67;19.40;;;21.40;84.70;;;;;;5036106;28;20206;-83
2022/05/26 01:44:26;;;;;;;29.23;20.67;;;21.30;84.90;;;;;;5071690;28;20213;-82
2022/05/26 01:47:02;;;;;;;33.23;19.47;;;21.30;84.90;;;;;;5027543;28;20614;-83
2022/05/26 01:49:40;;;;;;;30.17;18.30;;;21.30;85.10;;;;;;5027843;28;20214;-83
2022/05/26 01:52:18;;;;;;;28.77;18.20;;;21.20;85.20;;;;;;5039688;28;20206;-82
2022/05/26 01:55:17;;;;;;;27.57;18.83;;;21.20;85.20;;;;;;5058641;28;20317;-82
2022/05/26 01:57:54;;;;;;;36.13;20.50;;;21.20;85.40;;;;;;5038330;28;20198;-82
2022/05/26 02:00:22;;;;;;;30.50;20.17;;;21.10;85.40;;;;;;5045455;28;20210;-85
2022/05/26 02:03:06;;;;;;;28.03;21.80;;;21.10;85.60;;;;;;5045953;28;20206;-83
2022/05/26 02:05:51;;;;;;;36.37;20.60;;;21.10;85.90;;;;;;5060021;28;20650;-83
2022/05/26 02:08:44;;;;;;;39.77;20.17;;;21.10;86.10;;;;;;5027270;28;20222;-83
2022/05/26 02:11:20;;;;;;;30.90;19.53;;;21.10;86.00;;;;;;5043115;28;20214;-83
2022/05/26 02:14:04;;;;;;;38.00;19.57;;;21.00;86.00;;;;;;5061274;28;20213;-83
2022/05/26 02:16:46;;;;;;;35.00;21.43;;;20.80;86.30;;;;;;5056195;28;20644;-83
2022/05/26 02:19:22;;;;;;;34.87;21.13;;;20.80;87.10;;;;;;5059981;28;20289;-83
2022/05/26 02:22:17;;;;;;;28.87;19.97;;;20.70;87.50;;;;;;5044207;28;20209;-83
2022/05/26 02:25:00;;;;;;;30.20;20.50;;;20.70;87.80;;;;;;5056788;28;20210;-83
2022/05/26 02:27:32;;;;;;;28.67;20.30;;;20.70;88.00;;;;;;5060437;28;20207;-83
2022/05/26 02:30:03;;;;;;;32.77;19.87;;;20.70;88.10;;;;;;5044524;28;20213;-83
2022/05/26 02:32:37;;;;;;;43.50;19.53;;;20.70;88.00;;;;;;5061191;28;20215;-83
2022/05/26 02:35:11;;;;;;;45.73;20.60;;;20.70;88.00;;;;;;5064846;28;20272;-83
2022/05/26 02:37:47;;;;;;;49.77;18.80;;;20.70;87.90;;;;;;5064496;28;20585;-83
2022/05/26 02:40:16;;;;;;;33.77;18.17;;;20.70;87.70;;;;;;5063940;28;20216;-84
2022/05/26 02:43:06;;;;;;;39.83;17.87;;;20.70;87.50;;;;;;5063014;28;20631;-84
2022/05/26 02:45:42;;;;;;;26.40;18.70;;;20.80;87.50;;;;;;5048898;28;20542;-84
2022/05/26 02:48:29;;;;;;;39.67;17.80;;;20.80;87.60;;;;;;5062781;28;20214;-84
2022/05/26 02:51:24;;;;;;;39.97;20.53;;;20.80;87.80;;;;;;5054722;28;20240;-84
2022/05/26 02:54:10;;;;;;;33.63;18.73;;;20.90;87.90;;;;;;5062561;28;20212;-85
2022/05/26 02:57:07;;;;;;;32.53;18.67;;;20.90;87.80;;;;;;5063807;28;20213;-84
2022/05/26 03:00:03;;;;;;;32.53;17.73;;;21.00;87.70;;;;;;5045892;28;20217;-84
2022/05/26 03:02:45;;;;;;;36.10;18.80;;;21.00;87.40;;;;;;5045309;28;20203;-84
2022/05/26 03:05:15;;;;;;;36.97;17.97;;;20.90;87.30;;;;;;5061234;28;20248;-84
2022/05/26 03:07:45;;;;;;;24.90;18.10;;;20.90;87.30;;;;;;5060937;28;20237;-84
2022/05/26 03:10:15;;;;;;;26.03;17.83;;;20.90;87.30;;;;;;5060839;28;20620;-83
2022/05/26 03:12:43;;;;;;;29.27;19.27;;;20.90;87.40;;;;;;5063376;28;20229;-84
2022/05/26 03:15:14;;;;;;;36.93;20.17;;;20.90;87.40;;;;;;5047469;28;20239;-84
2022/05/26 03:17:43;;;;;;;30.60;19.80;;;20.90;87.30;;;;;;5053180;28;20206;-84
2022/05/26 03:20:16;;;;;;;35.80;20.80;;;20.90;87.40;;;;;;5054234;28;20528;-84
2022/05/26 03:22:47;;;;;;;31.63;21.63;;;20.90;87.40;;;;;;5045601;28;20202;-84
2022/05/26 03:25:15;;;;;;;35.57;22.03;;;20.90;87.40;;;;;;5061279;28;20228;-84
2022/05/26 03:27:43;;;;;;;29.67;20.30;;;20.90;87.40;;;;;;5062163;28;20210;-84
2022/05/26 03:30:11;;;;;;;24.90;20.27;;;20.90;87.50;;;;;;5062191;28;20787;-84
2022/05/26 03:32:45;;;;;;;32.67;21.53;;;20.80;87.60;;;;;;5043488;28;20305;-84
2022/05/26 03:40:46;;;;;;;35.57;21.40;;;20.80;87.80;;;;;;5048921;28;20210;-84
2022/05/26 03:41:18;;;;;;;23.07;18.47;;;20.80;87.70;;;;;;5040389;28;20210;-84
2022/05/26 03:43:54;;;;;;;29.00;20.70;;;20.80;87.70;;;;;;5043109;28;20243;-83
2022/05/26 03:46:25;;;;;;;31.50;21.67;;;20.80;87.70;;;;;;5027990;28;20225;-83
2022/05/26 03:48:53;;;;;;;29.13;21.07;;;20.80;87.70;;;;;;5059860;28;20206;-83
2022/05/26 03:51:22;;;;;;;27.07;20.23;;;20.80;87.80;;;;;;5042987;28;20296;-84
2022/05/26 03:53:49;;;;;;;30.90;22.57;;;20.80;87.80;;;;;;5060265;28;20204;-83
2022/05/26 03:56:17;;;;;;;25.20;21.40;;;20.80;87.90;;;;;;5059686;28;20278;-83
2022/05/26 03:58:45;;;;;;;31.57;20.23;;;20.80;88.00;;;;;;5066989;28;20209;-84
2022/05/26 04:01:14;;;;;;;28.67;20.83;;;20.90;88.00;;;;;;5049568;28;20260;-84
2022/05/26 04:03:42;;;;;;;32.23;20.80;;;20.90;87.80;;;;;;5048713;28;20213;-84
2022/05/26 04:06:11;;;;;;;26.80;20.97;;;21.00;87.60;;;;;;5046867;28;20319;-84
2022/05/26 04:08:39;;;;;;;25.60;20.87;;;21.00;87.50;;;;;;5045030;28;20214;-84
2022/05/26 04:11:16;;;;;;;30.30;22.87;;;21.00;87.40;;;;;;5055224;28;20209;-84
2022/05/26 04:13:43;;;;;;;29.70;23.63;;;21.10;87.40;;;;;;5043555;28;20218;-84
2022/05/26 04:16:11;;;;;;;34.20;24.47;;;21.20;87.40;;;;;;5058221;28;20228;-84
2022/05/26 04:18:39;;;;;;;36.17;25.77;;;21.30;87.40;;;;;;5043631;28;20268;-84
2022/05/26 04:21:09;;;;;;;33.13;25.77;;;21.30;88.00;;;;;;5042091;28;20239;-84
2022/05/26 04:23:38;;;;;;;39.17;28.60;;;21.40;87.20;;;;;;5042320;28;20219;-84
2022/05/26 04:26:08;;;;;;;32.63;27.70;;;21.50;87.00;;;;;;5057746;28;20647;-83
2022/05/26 04:28:36;;;;;;;38.27;26.87;;;21.60;86.90;;;;;;5058278;28;20214;-84
2022/05/26 04:31:05;;;;;;;39.33;28.53;;;21.60;86.70;;;;;;5058490;28;20683;-84
2022/05/26 04:33:33;;;;;;;36.73;28.60;;;21.70;86.60;;;;;;5057971;28;20241;-84
2022/05/26 04:36:05;;;;;;;33.70;27.17;;;21.70;86.50;;;;;;5058065;28;20241;-84
2022/05/26 04:38:32;;;;;;;32.57;28.80;;;21.80;86.40;;;;;;5041419;28;20206;-84
2022/05/26 04:41:04;;;;;;;38.07;29.03;;;21.80;86.20;;;;;;5057934;28;20193;-84
2022/05/26 04:43:32;;;;;;;34.20;28.90;;;21.90;86.20;;;;;;5059380;28;20258;-84
2022/05/26 04:46:02;;;;;;;42.23;28.63;;;21.90;86.10;;;;;;5041451;28;20210;-84
2022/05/26 04:48:30;;;;;;;37.93;28.63;;;21.90;86.00;;;;;;5026546;28;20202;-82
2022/05/26 04:51:06;;;;;;;38.23;28.67;;;22.00;86.00;;;;;;5052313;28;20310;-84
2022/05/26 04:53:33;;;;;;;34.07;28.67;;;22.10;85.80;;;;;;5041373;28;20217;-84
2022/05/26 04:56:01;;;;;;;41.63;29.23;;;22.10;85.80;;;;;;5057732;28;20246;-83
2022/05/26 04:58:29;;;;;;;41.37;29.40;;;22.10;85.70;;;;;;5058143;28;20210;-84
2022/05/26 05:00:57;;;;;;;36.47;28.50;;;22.20;85.70;;;;;;5036057;28;20206;-84
2022/05/26 05:03:27;;;;;;;31.40;26.87;;;22.30;85.50;;;;;;5042071;28;20209;-84
2022/05/26 05:05:56;;;;;;;37.87;27.50;;;22.30;85.20;;;;;;5041796;28;20552;-84
2022/05/26 05:08:26;;;;;;;38.60;27.60;;;22.40;84.90;;;;;;5063010;28;20233;-84
2022/05/26 05:10:53;;;;;;;36.93;27.53;;;22.50;84.80;;;;;;5057716;28;20656;-84
2022/05/26 05:13:21;;;;;;;33.20;28.40;;;22.60;84.70;;;;;;5058705;28;20233;-84
2022/05/26 05:15:57;;;;;;;31.43;25.07;;;22.70;84.40;;;;;;5032434;28;20222;-84
2022/05/26 05:18:24;;;;;;;31.50;25.33;;;22.80;84.00;;;;;;5057325;28;20289;-84
2022/05/26 05:20:56;;;;;;;34.77;26.87;;;22.90;83.60;;;;;;5056819;28;20206;-84
2022/05/26 05:23:24;;;;;;;32.97;25.60;;;23.00;83.30;;;;;;5057256;28;20232;-84
2022/05/26 05:30:25;;;;;;;33.27;25.80;;;23.20;82.60;;;;;;5042259;28;20236;-84
2022/05/26 05:32:55;;;;;;;37.40;26.27;;;23.30;82.20;;;;;;5041142;28;20214;-83
2022/05/26 05:35:31;;;;;;;33.77;26.50;;;23.30;81.30;;;;;;5040348;28;20652;-84
2022/05/26 05:38:00;;;;;;;36.97;27.57;;;23.20;81.10;;;;;;5048903;28;20624;-83
2022/05/26 05:40:28;;;;;;;38.30;27.60;;;23.20;81.30;;;;;;5039660;28;20210;-83
2022/05/26 05:42:59;;;;;;;33.33;27.73;;;23.20;81.40;;;;;;5056561;28;20210;-82
2022/05/26 05:45:27;;;;;;;33.13;27.30;;;23.20;81.20;;;;;;5056688;28;20206;-83
2022/05/26 05:47:55;;;;;;;41.43;30.03;;;23.10;81.10;;;;;;5039084;28;20202;-84
2022/05/26 05:50:22;;;;;;;38.40;29.30;;;23.10;81.80;;;;;;5040245;28;20195;-83
2022/05/26 05:52:50;;;;;;;37.40;31.30;;;23.00;82.10;;;;;;5057299;28;20308;-83
2022/05/26 05:55:17;;;;;;;37.00;30.47;;;23.00;82.30;;;;;;5056415;28;20333;-84
2022/05/26 05:57:44;;;;;;;37.80;30.90;;;23.00;82.40;;;;;;5022387;28;20231;-83
2022/05/26 06:00:12;;;;;;;47.60;33.27;;;23.00;82.50;;;;;;5039080;28;20210;-83
2022/05/26 06:02:39;;;;;;;46.57;35.63;;;23.00;82.70;;;;;;5032868;28;20210;-83
2022/05/26 06:05:07;;;;;;;47.83;34.60;;;23.00;82.70;;;;;;5055652;28;20264;-83
2022/05/26 06:07:37;;;;;;;42.63;35.80;;;23.00;82.70;;;;;;5056878;28;20602;-83
2022/05/26 06:10:10;;;;;;;47.90;39.50;;;23.00;82.90;;;;;;5061119;28;20203;-83
2022/05/26 06:12:38;;;;;;;55.17;42.97;;;23.10;83.00;;;;;;5060302;28;20647;-83
2022/05/26 06:15:06;;;;;;;52.57;43.33;;;23.10;82.90;;;;;;5059203;28;20225;-83
2022/05/26 06:17:33;;;;;;;47.97;41.83;;;23.10;82.90;;;;;;5043444;28;20206;-83
2022/05/26 06:20:01;;;;;;;41.57;37.13;;;23.20;83.10;;;;;;5046449;28;20207;-83
2022/05/26 06:22:30;;;;;;;45.43;34.27;;;23.10;83.40;;;;;;5040151;28;20544;-83
2022/05/26 06:24:57;;;;;;;49.63;35.67;;;23.20;83.40;;;;;;5073058;28;20248;-83
2022/05/26 06:30:15;;;;;;;51.10;35.23;;;23.10;83.00;;;;;;5046474;28;20248;-83
2022/05/26 06:38:22;;;;;;;43.57;34.53;;;23.10;83.60;;;;;;5057194;28;20206;-83
2022/05/26 06:40:52;;;;;;;38.00;32.07;;;23.10;83.70;;;;;;5063837;28;20212;-83
2022/05/26 06:43:20;;;;;;;39.20;32.47;;;23.00;83.60;;;;;;5061831;28;20248;-83
2022/05/26 06:45:48;;;;;;;44.30;32.87;;;23.00;83.50;;;;;;5043561;28;20695;-83
2022/05/26 06:48:16;;;;;;;36.57;32.67;;;23.00;83.70;;;;;;5060441;28;20207;-83
2022/05/26 06:50:43;;;;;;;39.97;31.80;;;23.00;83.90;;;;;;5059188;28;20281;-83
2022/05/26 06:53:11;;;;;;;35.83;30.10;;;23.00;84.00;;;;;;5058981;28;20242;-82
2022/05/26 06:55:38;;;;;;;43.40;33.23;;;23.00;84.10;;;;;;5057865;28;20245;-83
2022/05/26 06:58:06;;;;;;;37.50;30.93;;;23.10;83.90;;;;;;5057908;28;20285;-82
2022/05/26 07:00:33;;;;;;;41.57;31.53;;;23.10;83.80;;;;;;5058031;28;20209;-83
2022/05/26 07:03:00;;;;;;;41.37;29.03;;;23.10;83.90;;;;;;5058227;28;20207;-83
2022/05/26 07:05:27;;;;;;;41.80;30.50;;;23.20;83.90;;;;;;5058487;28;20210;-82
2022/05/26 07:07:55;;;;;;;41.50;32.20;;;23.20;83.40;;;;;;5057803;28;20198;-83
2022/05/26 07:10:22;;;;;;;40.37;33.27;;;23.20;83.50;;;;;;5040847;28;20244;-83
2022/05/26 07:12:50;;;;;;;35.97;30.10;;;23.20;83.70;;;;;;5040530;28;20542;-83
2022/05/26 07:15:17;;;;;;;42.27;32.60;;;23.30;84.00;;;;;;5058058;28;20214;-83
2022/05/26 07:17:45;;;;;;;37.80;32.33;;;23.30;84.10;;;;;;5058794;28;20214;-83
2022/05/26 07:20:13;;;;;;;42.90;32.83;;;23.40;84.00;;;;;;5040756;28;20209;-83
2022/05/26 07:22:40;;;;;;;38.07;33.67;;;23.40;84.10;;;;;;5075685;28;20187;-83
2022/05/26 07:25:08;;;;;;;47.97;31.63;;;23.60;83.60;;;;;;5060056;28;20194;-83
2022/05/26 07:27:35;;;;;;;35.27;30.60;;;23.60;83.50;;;;;;5058700;28;20199;-83
2022/05/26 07:30:04;;;;;;;35.40;27.90;;;23.70;83.50;;;;;;5058749;28;20218;-82
2022/05/26 07:32:33;;;;;;;35.60;30.23;;;23.80;83.80;;;;;;5042549;28;20612;-83
2022/05/26 07:35:00;;;;;;;42.27;30.07;;;23.90;84.40;;;;;;5062265;28;20245;-82
2022/05/26 07:42:58;;;;;;;39.27;30.20;;;24.20;84.70;;;;;;5059064;28;20211;-82
2022/05/26 07:45:26;;;;;;;38.80;28.00;;;24.40;84.60;;;;;;5058315;28;20238;-83
2022/05/26 07:47:53;;;;;;;48.87;29.53;;;24.60;84.20;;;;;;5058566;28;20202;-83
2022/05/26 07:50:20;;;;;;;54.53;28.33;;;24.90;83.30;;;;;;5058771;28;20430;-84
2022/05/26 07:52:49;;;;;;;43.57;27.43;;;25.20;83.10;;;;;;5060054;28;20202;-83
2022/05/26 07:55:18;;;;;;;39.53;28.03;;;25.50;81.70;;;;;;5059154;28;20333;-84
2022/05/26 07:57:46;;;;;;;44.83;26.43;;;25.70;81.70;;;;;;5039426;28;20199;-83
2022/05/26 08:00:15;;;;;;;39.20;26.30;;;25.90;79.90;;;;;;5054012;28;20626;-83
2022/05/26 08:02:42;;;;;;;30.73;23.93;;;26.00;79.00;;;;;;5057363;28;20709;-84
2022/05/26 08:05:12;;;;;;;32.87;22.80;;;26.10;78.70;;;;;;5057433;28;20221;-82
2022/05/26 08:07:41;;;;;;;39.03;24.77;;;26.30;78.70;;;;;;5058810;28;20203;-84
2022/05/26 08:10:09;;;;;;;35.40;23.63;;;26.60;77.20;;;;;;5057424;28;20267;-84
2022/05/26 08:12:36;;;;;;;35.93;23.40;;;26.70;76.00;;;;;;5058308;28;20206;-83
2022/05/26 08:15:04;;;;;;;31.80;21.60;;;26.80;75.00;;;;;;5058060;28;20201;-84
2022/05/26 08:17:31;;;;;;;31.33;21.30;;;26.90;73.60;;;;;;5057186;28;20319;-84
2022/05/26 08:19:59;;;;;;;35.97;21.00;;;27.00;73.20;;;;;;5050259;28;20672;-84
2022/05/26 08:22:29;;;;;;;31.50;20.60;;;27.00;73.60;;;;;;5059429;28;20263;-84
2022/05/26 08:24:59;;;;;;;34.47;20.53;;;27.10;74.00;;;;;;5041138;28;20229;-84
2022/05/26 08:27:27;;;;;;;25.10;18.37;;;27.30;73.90;;;;;;5057346;28;20718;-83
2022/05/26 08:29:54;;;;;;;33.03;19.17;;;27.50;72.60;;;;;;5041465;28;20639;-83
2022/05/26 08:32:23;;;;;;;34.30;17.57;;;27.50;71.20;;;;;;5057618;28;20224;-83
2022/05/26 08:35:03;;;;;;;26.73;18.03;;;27.50;72.10;;;;;;5057064;28;20211;-84
2022/05/26 08:37:30;;;;;;;26.40;18.00;;;27.30;71.10;;;;;;5040915;28;20253;-84
2022/05/26 08:39:58;;;;;;;31.40;17.97;;;27.20;71.20;;;;;;5059125;28;20194;-84
2022/05/26 08:42:31;;;;;;;36.13;18.03;;;27.10;71.50;;;;;;5057136;28;20195;-83
2022/05/26 08:45:04;;;;;;;28.43;16.53;;;27.00;72.00;;;;;;5058412;28;20612;-84
2022/05/26 08:47:42;;;;;;;20.63;13.63;;;27.00;72.30;;;;;;5058680;28;20237;-82
2022/05/26 08:50:14;;;;;;;24.00;12.83;;;27.10;72.80;;;;;;5041456;28;20220;-83
2022/05/26 08:52:47;;;;;;;20.87;14.27;;;27.20;72.50;;;;;;5041119;28;20226;-81
2022/05/26 08:55:20;;;;;;;21.70;13.40;;;27.40;71.10;;;;;;5057869;28;20277;-84
2022/05/26 08:57:58;;;;;;;25.87;12.10;;;27.50;71.30;;;;;;5042764;28;20234;-81
2022/05/26 09:00:27;;;;;;;20.20;11.70;;;27.70;70.50;;;;;;5060357;28;20210;-81
2022/05/26 09:03:00;;;;;;;26.33;12.53;;;27.80;69.60;;;;;;5059721;28;20683;-84
2022/05/26 09:05:35;;;;;;;15.37;10.00;;;27.90;70.40;;;;;;5059189;28;20207;-83
2022/05/26 09:13:54;;;;;;;22.17;11.07;;;28.40;66.70;;;;;;5041543;28;20628;-84
2022/05/26 09:16:22;;;;;;;22.73;12.13;;;28.60;66.80;;;;;;5060230;28;20275;-85
2022/05/26 09:19:18;;;;;;;22.20;11.70;;;28.60;66.60;;;;;;5059573;28;20210;-82
2022/05/26 09:21:48;;;;;;;26.23;13.07;;;28.50;66.40;;;;;;5050761;28;20210;-84
2022/05/26 09:24:25;;;;;;;17.63;11.43;;;28.30;66.10;;;;;;5060515;28;20191;-82
2022/05/26 09:27:22;;;;;;;20.63;11.30;;;28.10;66.70;;;;;;5060540;28;20335;-84
2022/05/26 09:29:52;;;;;;;23.80;11.93;;;27.80;67.30;;;;;;5045692;28;20240;-84
2022/05/26 09:32:30;;;;;;;23.10;10.53;;;27.60;67.50;;;;;;5011029;28;20236;-83
2022/05/26 09:35:22;;;;;;;18.03;10.93;;;27.50;68.20;;;;;;5060471;28;20274;-83
2022/05/26 09:37:54;;;;;;;18.00;10.53;;;27.40;67.90;;;;;;5039293;28;20554;-84
2022/05/26 09:40:27;;;;;;;21.67;11.00;;;27.40;68.60;;;;;;5059093;28;20761;-83
2022/05/26 09:43:08;;;;;;;19.40;10.27;;;27.30;68.60;;;;;;5062709;28;20198;-84
2022/05/26 09:45:44;;;;;;;23.73;11.37;;;27.30;69.20;;;;;;5065784;28;20205;-83
2022/05/26 09:48:52;;;;;;;19.27;11.00;;;27.40;70.10;;;;;;5047975;28;20209;-83
2022/05/26 09:51:34;;;;;;;20.67;11.40;;;27.50;69.80;;;;;;5005552;28;20271;-84
2022/05/26 09:54:28;;;;;;;23.97;11.37;;;27.50;70.50;;;;;;5005018;28;20249;-82
2022/05/26 09:57:13;;;;;;;20.20;12.30;;;27.60;69.70;;;;;;5067590;28;20240;-83
2022/05/26 09:59:45;;;;;;;25.07;13.17;;;27.50;69.80;;;;;;5066604;28;20206;-82
2022/05/26 10:02:23;;;;;;;25.97;12.57;;;27.50;69.90;;;;;;5054521;28;20263;-82
2022/05/26 10:05:25;;;;;;;23.20;13.00;;;27.40;70.20;;;;;;5075060;28;20241;-82
2022/05/26 10:08:37;;;;;;;21.33;13.03;;;27.40;70.40;;;;;;5066361;28;20526;-83
2022/05/26 10:11:14;;;;;;;21.47;12.87;;;27.30;70.50;;;;;;5065476;28;20288;-83
2022/05/26 10:14:12;;;;;;;23.20;13.23;;;27.30;70.20;;;;;;5048142;28;20912;-83
2022/05/26 10:16:55;;;;;;;21.10;13.33;;;27.20;71.10;;;;;;5048009;28;20334;-83
2022/05/26 10:20:01;;;;;;;22.47;12.53;;;27.20;71.30;;;;;;5044756;28;20199;-83
2022/05/26 10:23:06;;;;;;;24.10;12.87;;;27.20;70.90;;;;;;5070938;28;20213;-83
2022/05/26 10:25:54;;;;;;;25.20;12.83;;;27.20;70.90;;;;;;5047118;28;20278;-82
2022/05/26 10:29:02;;;;;;;18.87;11.97;;;27.30;70.40;;;;;;5064395;28;20237;-83
2022/05/26 10:31:39;;;;;;;20.83;12.10;;;27.30;71.10;;;;;;5065302;28;20198;-83
2022/05/26 10:34:46;;;;;;;20.80;10.87;;;27.30;71.50;;;;;;5047256;28;20676;-83
2022/05/26 10:37:41;;;;;;;21.23;11.07;;;27.40;71.40;;;;;;5063829;28;20700;-83
2022/05/26 10:40:19;;;;;;;13.43;9.80;;;27.40;69.30;;;;;;5056751;28;20213;-83
2022/05/26 10:43:08;;;;;;;19.30;9.70;;;27.40;69.70;;;;;;5064467;28;20201;-82
2022/05/26 10:45:43;;;;;;;19.17;10.00;;;27.50;70.00;;;;;;5080499;28;20271;-83
2022/05/26 10:48:48;;;;;;;16.00;9.10;;;27.40;69.20;;;;;;5047053;28;20278;-83
2022/05/26 10:51:23;;;;;;;19.90;8.47;;;27.40;68.30;;;;;;5045974;28;20244;-82
2022/05/26 10:54:00;;;;;;;15.73;8.77;;;27.40;69.20;;;;;;5045934;28;20202;-84
2022/05/26 10:57:05;;;;;;;16.73;8.17;;;27.50;68.60;;;;;;5062259;28;20235;-82
2022/05/26 10:59:39;;;;;;;17.40;10.63;;;27.50;68.40;;;;;;5026093;28;20208;-84
2022/05/26 11:02:21;;;;;;;17.87;8.50;;;27.50;68.50;;;;;;5044653;28;20220;-83
2022/05/26 11:05:00;;;;;;;16.30;8.63;;;27.50;68.70;;;;;;5050455;28;20592;-83
2022/05/26 11:07:48;;;;;;;18.30;9.10;;;27.50;68.70;;;;;;5057252;28;20194;-82
2022/05/26 11:10:27;;;;;;;14.17;8.07;;;27.60;68.80;;;;;;5076110;28;20207;-82
2022/05/26 11:13:04;;;;;;;16.43;9.03;;;27.60;68.90;;;;;;5060089;28;20191;-82
2022/05/26 11:18:48;;;;;;;18.07;8.93;;;27.70;68.30;;;;;;5048649;28;20202;-83
2022/05/26 11:21:21;;;;;;;14.27;8.03;;;27.60;68.10;;;;;;5059867;28;20251;-83
2022/05/26 11:23:51;;;;;;;17.07;7.80;;;27.70;68.60;;;;;;5042242;28;20222;-82
2022/05/26 11:26:47;;;;;;;14.47;7.63;;;27.70;68.80;;;;;;5042823;28;20216;-83
2022/05/26 11:29:32;;;;;;;16.87;7.23;;;27.70;68.90;;;;;;5050431;28;20573;-83
2022/05/26 11:38:30;;;;;;;13.97;7.20;;;27.80;69.20;;;;;;5060368;28;20242;-84
2022/05/26 11:41:01;;;;;;;12.37;7.63;;;27.90;69.00;;;;;;5060309;28;20202;-83
2022/05/26 11:43:35;;;;;;;12.83;7.60;;;27.80;67.80;;;;;;5043713;28;20198;-82
2022/05/26 11:46:10;;;;;;;12.20;7.40;;;27.80;67.70;;;;;;5060920;28;20235;-82
2022/05/26 11:48:45;;;;;;;15.90;6.73;;;27.80;68.10;;;;;;5077336;28;20205;-84
2022/05/26 11:51:30;;;;;;;22.73;8.33;;;27.80;68.20;;;;;;5053693;28;20248;-84
2022/05/26 11:53:59;;;;;;;13.90;6.77;;;27.80;67.90;;;;;;5060229;28;20208;-84
2022/05/26 11:56:41;;;;;;;17.73;7.10;;;27.90;68.30;;;;;;5076435;28;20214;-83
2022/05/26 11:59:32;;;;;;;10.57;6.17;;;28.00;68.10;;;;;;5028110;28;20223;-83
2022/05/26 12:02:09;;;;;;;12.40;6.43;;;28.10;67.60;;;;;;5057321;28;20303;-84
2022/05/26 12:04:49;;;;;;;16.93;7.03;;;28.20;67.00;;;;;;5063263;28;20212;-84
2022/05/26 12:07:23;;;;;;;12.63;6.40;;;28.20;67.50;;;;;;5061808;28;20627;-84
2022/05/26 12:09:53;;;;;;;10.07;5.47;;;28.10;67.70;;;;;;5042972;28;20256;-83
2022/05/26 12:12:25;;;;;;;22.23;6.87;;;28.10;66.00;;;;;;5043695;28;20221;-82
2022/05/26 12:14:56;;;;;;;10.27;5.77;;;28.00;65.80;;;;;;5061209;28;20179;-83
2022/05/26 12:17:26;;;;;;;14.43;5.87;;;27.90;64.90;;;;;;5060449;28;20229;-84
2022/05/26 12:19:55;;;;;;;12.33;6.53;;;27.80;65.30;;;;;;5044044;28;20217;-84
2022/05/26 12:22:32;;;;;;;12.63;5.43;;;27.80;66.00;;;;;;5041336;28;20221;-83
2022/05/26 12:25:24;;;;;;;14.57;6.47;;;27.80;66.60;;;;;;5060793;28;20590;-84
2022/05/26 12:27:53;;;;;;;13.53;6.17;;;27.80;66.70;;;;;;5044346;28;20241;-84
2022/05/26 12:30:49;;;;;;;14.80;5.77;;;28.00;66.70;;;;;;5058886;28;20205;-83
2022/05/26 12:33:25;;;;;;;15.90;6.20;;;28.30;66.80;;;;;;5041830;28;20211;-83
2022/05/26 12:36:28;;;;;;;16.60;5.90;;;28.60;64.80;;;;;;5042109;28;20811;-84
2022/05/26 12:39:14;;;;;;;14.37;5.97;;;28.80;65.20;;;;;;5060101;28;20225;-83
2022/05/26 12:41:53;;;;;;;17.40;6.50;;;29.00;63.30;;;;;;5058372;28;20199;-84
2022/05/26 12:44:50;;;;;;;18.00;6.07;;;29.00;62.30;;;;;;5058635;28;20286;-83
2022/05/26 12:47:28;;;;;;;17.30;5.90;;;29.10;63.40;;;;;;5042700;28;20605;-84
2022/05/26 12:49:58;;;;;;;21.10;6.73;;;29.10;63.50;;;;;;5042182;28;20210;-84
2022/05/26 12:52:38;;;;;;;18.03;6.10;;;29.30;63.70;;;;;;5055607;28;20195;-83
2022/05/26 12:55:18;;;;;;;15.67;5.87;;;29.50;63.20;;;;;;5059169;28;20713;-84
2022/05/26 12:58:00;;;;;;;13.93;5.73;;;29.70;60.60;;;;;;5057981;28;20325;-83
2022/05/26 13:00:39;;;;;;;16.00;5.70;;;29.70;60.90;;;;;;5057602;28;20210;-84
2022/05/26 13:03:35;;;;;;;17.20;5.57;;;29.70;60.90;;;;;;5054411;28;20194;-85
2022/05/26 13:06:34;;;;;;;17.27;6.53;;;29.60;62.00;;;;;;5058932;28;20211;-84
2022/05/26 13:09:18;;;;;;;20.33;5.53;;;29.70;62.80;;;;;;5043653;28;20241;-84
2022/05/26 13:12:20;;;;;;;15.73;5.13;;;29.80;61.90;;;;;;5058121;28;20213;-86
2022/05/26 13:14:49;;;;;;;15.50;4.93;;;30.00;61.00;;;;;;5047840;28;20229;-84
2022/05/26 13:17:23;;;;;;;14.57;6.20;;;30.20;60.60;;;;;;5057129;28;20219;-85
2022/05/26 13:19:54;;;;;;;15.70;4.93;;;30.50;59.70;;;;;;5040450;28;20547;-85
2022/05/26 13:22:30;;;;;;;22.50;5.93;;;30.80;58.30;;;;;;5058413;28;20202;-84
2022/05/26 13:25:07;;;;;;;13.93;5.70;;;30.90;58.10;;;;;;5045556;28;20229;-84
2022/05/26 13:27:45;;;;;;;15.90;5.33;;;30.80;54.80;;;;;;5042414;28;20218;-83
2022/05/26 13:33:37;;;;;;;12.37;4.97;;;30.70;57.90;;;;;;5057469;28;20206;-83
2022/05/26 13:36:05;;;;;;;12.53;5.77;;;30.70;58.60;;;;;;5040867;28;20236;-85
2022/05/26 13:38:43;;;;;;;11.57;4.63;;;30.70;57.90;;;;;;5041690;28;20241;-84
2022/05/26 13:41:13;;;;;;;18.63;5.37;;;30.60;56.70;;;;;;5057711;28;20229;-84
2022/05/26 13:43:43;;;;;;;14.53;5.80;;;30.40;55.80;;;;;;5059115;28;20237;-84
2022/05/26 13:46:38;;;;;;;11.37;4.73;;;30.30;56.90;;;;;;5042536;28;20553;-85
2022/05/26 13:49:32;;;;;;;9.30;4.70;;;30.40;57.90;;;;;;5058045;28;20194;-84
2022/05/26 13:52:19;;;;;;;15.70;4.47;;;30.60;58.20;;;;;;5042215;28;20194;-84